Time;durP1;ratioP1;P1;durP2;ratioP2;P2;SDS_P1;SDS_P2;PMS_P1;PMS_P2;Temp;Humidity;BMP_temperature;BMP_pressure;BME280_temperature;BME280_humidity;BME280_pressure;Samples;Min_cycle;Max_cycle;Signal;HPM_P1;HPM_P2
2022/12/08 00:01:21;;;;;;;5.65;2.42;;;5.90;82.30;;;;;;4972037;28;20046;-60
2022/12/08 00:03:48;;;;;;;3.28;2.45;;;5.90;82.20;;;;;;4972860;28;20027;-60
2022/12/08 00:09:23;;;;;;;2.17;1.48;;;5.90;82.20;;;;;;4972314;28;20037;-61
2022/12/08 00:11:57;;;;;;;2.30;2.05;;;5.90;82.30;;;;;;4972243;28;20034;-61
2022/12/08 00:14:34;;;;;;;2.75;2.10;;;5.80;82.30;;;;;;4971914;28;20046;-58
2022/12/08 00:17:00;;;;;;;2.85;1.75;;;5.90;82.40;;;;;;4970670;28;20065;-60
2022/12/08 00:19:27;;;;;;;2.42;1.67;;;5.80;82.40;;;;;;4970808;28;20077;-61
2022/12/08 00:21:53;;;;;;;1.95;1.83;;;5.90;82.50;;;;;;4967307;28;20811;-61
2022/12/08 00:24:20;;;;;;;4.45;2.42;;;5.80;82.40;;;;;;4972528;28;20030;-56
2022/12/08 00:26:47;;;;;;;2.08;1.60;;;5.90;82.40;;;;;;4965207;28;20086;-58
2022/12/08 00:29:13;;;;;;;2.83;2.55;;;5.90;82.30;;;;;;4971488;28;20058;-57
2022/12/08 00:31:39;;;;;;;1.90;1.75;;;6.00;82.20;;;;;;4970713;28;20031;-60
2022/12/08 00:34:04;;;;;;;4.47;2.42;;;6.00;82.20;;;;;;4972272;28;20437;-60
2022/12/08 00:36:30;;;;;;;3.25;2.47;;;5.90;82.10;;;;;;4984906;28;20037;-61
2022/12/08 00:38:57;;;;;;;3.42;2.03;;;6.00;82.20;;;;;;4970125;28;20033;-57
2022/12/08 00:44:11;;;;;;;4.10;2.47;;;5.90;82.40;;;;;;4971224;28;20042;-60
2022/12/08 00:46:36;;;;;;;3.90;2.55;;;5.90;83.10;;;;;;4986020;28;20046;-58
2022/12/08 00:49:03;;;;;;;5.80;1.80;;;5.90;82.60;;;;;;4971311;28;20508;-60
2022/12/08 00:51:29;;;;;;;2.45;2.22;;;5.90;82.60;;;;;;4971478;28;20421;-59
2022/12/08 00:53:55;;;;;;;2.00;1.85;;;5.90;82.60;;;;;;4970299;28;20023;-58
2022/12/08 00:56:21;;;;;;;2.75;1.92;;;5.90;82.60;;;;;;4971569;28;20521;-60
2022/12/08 00:58:46;;;;;;;2.80;1.92;;;5.90;82.60;;;;;;4970622;28;20103;-60
2022/12/08 01:01:13;;;;;;;3.92;1.73;;;5.90;82.70;;;;;;4965404;28;20405;-59
2022/12/08 01:03:39;;;;;;;3.00;2.17;;;5.90;82.60;;;;;;4965767;28;20078;-58
2022/12/08 01:06:06;;;;;;;2.00;1.73;;;6.00;82.70;;;;;;4971018;28;20038;-58
2022/12/08 01:08:32;;;;;;;2.53;2.00;;;6.00;82.70;;;;;;4971414;28;20031;-58
2022/12/08 01:11:10;;;;;;;5.78;2.03;;;5.90;82.80;;;;;;4969730;28;20037;-58
2022/12/08 01:13:36;;;;;;;1.75;1.63;;;6.00;82.90;;;;;;4971116;28;20426;-57
2022/12/08 01:16:02;;;;;;;3.53;2.13;;;5.90;83.10;;;;;;4970894;28;20030;-58
2022/12/08 01:18:28;;;;;;;2.90;1.92;;;5.90;83.00;;;;;;4970059;28;20038;-58
2022/12/08 01:20:54;;;;;;;2.53;1.83;;;6.00;83.10;;;;;;4970791;28;20110;-61
2022/12/08 01:23:20;;;;;;;1.80;1.42;;;6.00;83.20;;;;;;4971043;28;20191;-61
2022/12/08 01:25:45;;;;;;;4.25;1.73;;;5.90;83.20;;;;;;4971106;28;20533;-61
2022/12/08 01:28:11;;;;;;;1.73;1.55;;;6.00;83.30;;;;;;4970546;28;20035;-61
2022/12/08 01:30:38;;;;;;;2.13;1.58;;;6.00;83.20;;;;;;4968746;28;20027;-60
2022/12/08 01:33:04;;;;;;;2.20;1.42;;;6.00;83.10;;;;;;4971288;28;20038;-61
2022/12/08 01:35:30;;;;;;;1.70;1.60;;;6.00;83.10;;;;;;4969677;28;20030;-60
2022/12/08 01:37:56;;;;;;;2.10;1.77;;;6.00;83.10;;;;;;4970473;28;20056;-60
2022/12/08 01:40:22;;;;;;;2.30;1.75;;;6.00;83.10;;;;;;4970647;28;20030;-60
2022/12/08 01:42:48;;;;;;;2.88;1.88;;;6.00;83.30;;;;;;4970599;28;20094;-60
2022/12/08 01:45:23;;;;;;;2.17;1.98;;;6.00;83.40;;;;;;4970736;28;20078;-60
2022/12/08 01:47:53;;;;;;;3.53;2.55;;;6.10;83.50;;;;;;4969912;28;20055;-60
2022/12/08 01:50:20;;;;;;;2.88;2.30;;;6.00;83.70;;;;;;4970741;28;20166;-60
2022/12/08 01:52:52;;;;;;;5.25;2.60;;;6.00;83.90;;;;;;4969680;28;20050;-59
2022/12/08 01:55:38;;;;;;;5.27;2.37;;;6.00;83.80;;;;;;4970994;28;20035;-61
2022/12/08 01:58:26;;;;;;;4.03;3.05;;;6.10;83.90;;;;;;4968561;28;20042;-59
2022/12/08 02:00:52;;;;;;;5.97;2.85;;;6.10;83.80;;;;;;4969682;28;20102;-59
2022/12/08 02:03:27;;;;;;;4.47;3.22;;;6.00;84.00;;;;;;4969060;28;20490;-61
2022/12/08 02:05:52;;;;;;;3.72;2.47;;;6.00;84.00;;;;;;4966270;28;20039;-57
2022/12/08 02:08:19;;;;;;;8.88;4.32;;;6.00;84.10;;;;;;4968630;28;20505;-59
2022/12/08 02:10:46;;;;;;;4.70;2.90;;;6.00;84.40;;;;;;4969313;28;20031;-58
2022/12/08 02:13:15;;;;;;;5.25;3.30;;;6.00;84.20;;;;;;4970551;28;20374;-59
2022/12/08 02:16:23;;;;;;;3.63;2.50;;;6.00;84.20;;;;;;4970832;28;20473;-61
2022/12/08 02:18:57;;;;;;;5.38;3.70;;;6.00;84.20;;;;;;4969043;28;20042;-58
2022/12/08 02:21:36;;;;;;;4.00;2.88;;;5.90;84.40;;;;;;4969974;28;20374;-59
2022/12/08 02:24:30;;;;;;;4.47;3.25;;;6.00;84.50;;;;;;4970839;28;20031;-59
2022/12/08 02:27:01;;;;;;;6.25;3.30;;;6.00;84.40;;;;;;4969650;28;20065;-59
2022/12/08 02:29:48;;;;;;;4.38;2.88;;;6.00;84.60;;;;;;4969879;28;20046;-58
2022/12/08 02:32:23;;;;;;;3.92;3.03;;;6.00;84.40;;;;;;4973344;28;20035;-61
2022/12/08 02:35:09;;;;;;;3.63;3.30;;;6.00;84.40;;;;;;4973155;28;20031;-60
2022/12/08 02:37:53;;;;;;;5.53;3.42;;;6.10;85.20;;;;;;4974338;28;20058;-59
2022/12/08 02:40:22;;;;;;;4.80;3.13;;;6.00;84.70;;;;;;4962402;28;20031;-60
2022/12/08 02:42:57;;;;;;;4.03;2.83;;;6.00;84.70;;;;;;4974362;28;20081;-61
2022/12/08 02:45:23;;;;;;;4.05;2.45;;;6.00;84.60;;;;;;4973536;28;20070;-58
2022/12/08 02:47:49;;;;;;;3.22;2.75;;;6.00;84.60;;;;;;4973697;28;20034;-59
2022/12/08 02:50:15;;;;;;;4.07;2.97;;;6.00;84.70;;;;;;4973293;28;20043;-61
2022/12/08 02:52:43;;;;;;;2.85;2.35;;;6.00;84.90;;;;;;4973838;28;20031;-60
2022/12/08 02:55:21;;;;;;;3.72;2.72;;;6.00;85.00;;;;;;4973546;28;20520;-58
2022/12/08 02:58:20;;;;;;;5.00;3.13;;;6.00;84.80;;;;;;4972122;28;20051;-58
2022/12/08 03:01:05;;;;;;;4.68;3.03;;;6.10;84.70;;;;;;4972675;28;20046;-61
2022/12/08 03:03:33;;;;;;;3.75;2.78;;;6.10;84.60;;;;;;4974350;28;20730;-61
2022/12/08 03:06:04;;;;;;;4.78;3.53;;;6.10;84.70;;;;;;4972527;28;20038;-61
2022/12/08 03:08:59;;;;;;;5.25;3.30;;;6.10;84.70;;;;;;4973551;28;20030;-58
2022/12/08 03:11:35;;;;;;;3.63;2.67;;;6.00;84.60;;;;;;4964509;28;20097;-58
2022/12/08 03:14:05;;;;;;;5.72;3.67;;;6.00;84.90;;;;;;4973357;28;20477;-59
2022/12/08 03:16:33;;;;;;;4.60;3.00;;;6.00;85.10;;;;;;4974008;28;20031;-59
2022/12/08 03:19:06;;;;;;;4.32;3.35;;;6.00;85.10;;;;;;4972303;28;20023;-58
2022/12/08 03:21:34;;;;;;;2.97;2.75;;;6.00;85.00;;;;;;4973377;28;20035;-60
2022/12/08 03:24:02;;;;;;;6.13;2.88;;;6.00;84.90;;;;;;4973009;28;20023;-60
2022/12/08 03:26:35;;;;;;;4.82;2.90;;;6.10;84.90;;;;;;4972867;28;20027;-58
2022/12/08 03:29:00;;;;;;;2.85;2.28;;;6.10;84.90;;;;;;4973067;28;20049;-59
2022/12/08 03:31:30;;;;;;;4.20;2.90;;;6.10;84.90;;;;;;4973448;28;20027;-61
2022/12/08 03:33:57;;;;;;;3.85;3.20;;;6.10;84.90;;;;;;4973163;28;20487;-58
2022/12/08 03:36:24;;;;;;;4.97;2.90;;;6.10;84.90;;;;;;4972727;28;20078;-59
2022/12/08 03:38:51;;;;;;;5.25;3.38;;;6.10;84.90;;;;;;4970650;28;20030;-59
2022/12/08 03:41:18;;;;;;;2.45;2.20;;;6.10;85.00;;;;;;4972931;28;20034;-59
2022/12/08 03:43:56;;;;;;;5.50;2.42;;;6.10;84.90;;;;;;4972949;28;20054;-61
2022/12/08 03:46:23;;;;;;;3.22;2.42;;;6.10;84.80;;;;;;4971410;28;20068;-60
2022/12/08 03:48:49;;;;;;;3.45;2.33;;;6.10;85.00;;;;;;4972214;28;20037;-61
2022/12/08 03:51:15;;;;;;;3.83;2.25;;;6.10;85.10;;;;;;4971743;28;20097;-61
2022/12/08 03:53:42;;;;;;;2.63;1.98;;;6.10;85.10;;;;;;4973113;28;20023;-61
2022/12/08 03:56:33;;;;;;;4.75;2.13;;;6.10;85.20;;;;;;4972253;28;20109;-58
2022/12/08 03:59:00;;;;;;;2.10;1.90;;;6.10;85.30;;;;;;4968019;28;20065;-58
2022/12/08 04:01:26;;;;;;;2.03;1.58;;;6.00;85.50;;;;;;4972764;28;20607;-58
2022/12/08 04:03:52;;;;;;;3.03;2.60;;;6.00;85.50;;;;;;4971734;28;20541;-59
2022/12/08 04:06:19;;;;;;;2.20;1.88;;;6.00;85.50;;;;;;4972519;28;20110;-59
2022/12/08 04:08:44;;;;;;;3.60;2.42;;;6.00;85.40;;;;;;4971847;28;20019;-61
2022/12/08 04:11:11;;;;;;;3.20;2.10;;;6.00;85.30;;;;;;4972290;28;20082;-61
2022/12/08 04:13:38;;;;;;;4.38;2.83;;;6.00;85.30;;;;;;4972583;28;20023;-60
2022/12/08 04:16:05;;;;;;;2.67;1.73;;;6.00;85.50;;;;;;4972947;28;20023;-61
2022/12/08 04:18:31;;;;;;;1.35;1.25;;;6.00;85.50;;;;;;4970225;28;20043;-61
2022/12/08 04:20:57;;;;;;;1.98;1.38;;;5.90;85.60;;;;;;4971233;28;20517;-60
2022/12/08 04:23:23;;;;;;;1.40;1.30;;;6.00;85.70;;;;;;4972557;28;20026;-61
2022/12/08 04:25:51;;;;;;;2.08;1.88;;;6.00;85.60;;;;;;4971922;28;20039;-61
2022/12/08 04:28:17;;;;;;;1.80;1.10;;;6.00;85.50;;;;;;4971602;28;20076;-61
2022/12/08 04:30:42;;;;;;;1.25;1.13;;;6.00;86.00;;;;;;4971592;28;20125;-59
2022/12/08 04:33:08;;;;;;;1.50;1.00;;;6.00;85.30;;;;;;4972559;28;20019;-59
2022/12/08 04:35:34;;;;;;;1.30;1.20;;;6.10;85.20;;;;;;4962260;28;20038;-59
2022/12/08 04:38:02;;;;;;;1.85;1.55;;;6.10;85.00;;;;;;4966286;28;20035;-59
2022/12/08 04:40:28;;;;;;;3.90;1.10;;;6.10;84.90;;;;;;4970279;28;20034;-58
2022/12/08 04:42:53;;;;;;;1.15;1.00;;;6.00;85.00;;;;;;4971828;28;20525;-59
2022/12/08 04:45:19;;;;;;;1.35;0.88;;;6.00;85.00;;;;;;4971509;28;20051;-59
2022/12/08 04:47:45;;;;;;;0.63;0.63;;;6.00;85.00;;;;;;4961614;28;20031;-58
2022/12/08 04:50:11;;;;;;;1.98;0.60;;;6.00;84.90;;;;;;4961220;28;20489;-58
2022/12/08 04:52:38;;;;;;;1.08;0.70;;;6.00;84.80;;;;;;4968199;28;20149;-59
2022/12/08 04:55:04;;;;;;;0.80;0.60;;;6.00;84.60;;;;;;4971688;28;20034;-60
2022/12/08 04:57:29;;;;;;;0.50;0.50;;;6.00;84.60;;;;;;4970120;28;20026;-61
2022/12/08 04:59:55;;;;;;;0.68;0.57;;;5.90;84.60;;;;;;4969572;28;20039;-60
2022/12/08 05:02:21;;;;;;;0.43;0.43;;;5.90;84.70;;;;;;4971257;28;20105;-58
2022/12/08 05:04:46;;;;;;;0.77;0.60;;;5.90;84.70;;;;;;4970852;28;20083;-60
2022/12/08 05:07:12;;;;;;;1.05;0.98;;;6.00;84.60;;;;;;4971414;28;20022;-61
2022/12/08 05:09:38;;;;;;;0.60;0.60;;;6.00;84.50;;;;;;4971412;28;20062;-59
2022/12/08 05:12:04;;;;;;;0.75;0.75;;;6.00;84.40;;;;;;4970332;28;20089;-61
2022/12/08 05:14:29;;;;;;;3.58;1.05;;;5.90;84.40;;;;;;4971144;28;20050;-60
2022/12/08 05:16:55;;;;;;;1.15;0.80;;;6.00;84.50;;;;;;4969912;28;20118;-59
2022/12/08 05:19:21;;;;;;;1.58;1.05;;;6.00;84.50;;;;;;4969976;28;20037;-60
2022/12/08 05:21:46;;;;;;;1.30;0.70;;;6.00;84.40;;;;;;4969490;28;20054;-61
2022/12/08 05:24:12;;;;;;;0.75;0.75;;;6.00;84.50;;;;;;4971523;28;20494;-59
2022/12/08 05:26:38;;;;;;;1.10;0.90;;;6.00;84.50;;;;;;4966831;28;20423;-58
2022/12/08 05:29:04;;;;;;;2.25;0.95;;;6.00;84.30;;;;;;4959923;28;20054;-59
2022/12/08 05:31:30;;;;;;;11.93;1.23;;;6.10;84.20;;;;;;4970212;28;20078;-61
2022/12/08 05:33:55;;;;;;;1.30;1.08;;;6.00;84.20;;;;;;4970626;28;20034;-60
2022/12/08 05:36:21;;;;;;;0.93;0.93;;;6.10;84.30;;;;;;4970934;28;20058;-61
2022/12/08 05:38:47;;;;;;;1.05;1.05;;;6.10;84.30;;;;;;4970268;28;20034;-60
2022/12/08 05:41:18;;;;;;;1.23;0.93;;;6.10;84.20;;;;;;4970977;28;20031;-60
2022/12/08 05:43:45;;;;;;;1.00;1.00;;;6.10;84.10;;;;;;4970672;28;20377;-60
2022/12/08 05:46:11;;;;;;;1.90;1.55;;;6.10;84.20;;;;;;4968915;28;20039;-58
2022/12/08 05:48:37;;;;;;;2.03;1.08;;;6.10;84.20;;;;;;4970393;28;20035;-60
2022/12/08 05:51:03;;;;;;;1.90;1.17;;;6.10;84.30;;;;;;4969971;28;20018;-60
2022/12/08 05:53:29;;;;;;;2.40;1.30;;;6.10;84.30;;;;;;4971031;28;20917;-58
2022/12/08 05:55:55;;;;;;;1.55;1.20;;;6.00;84.30;;;;;;4970792;28;20027;-57
2022/12/08 05:58:22;;;;;;;3.45;1.17;;;6.00;84.30;;;;;;4969455;28;20540;-57
2022/12/08 06:00:49;;;;;;;1.35;1.15;;;6.00;84.30;;;;;;4968440;28;20027;-57
2022/12/08 06:03:17;;;;;;;1.20;1.10;;;6.00;84.30;;;;;;4970931;28;20516;-57
2022/12/08 06:05:44;;;;;;;1.35;0.80;;;6.00;84.20;;;;;;4959456;28;20039;-58
2022/12/08 06:08:10;;;;;;;1.27;0.98;;;6.00;84.20;;;;;;4974553;28;20462;-58
2022/12/08 06:10:43;;;;;;;1.10;1.00;;;5.90;84.30;;;;;;4975028;28;20035;-58
2022/12/08 06:13:09;;;;;;;0.50;0.50;;;5.90;84.40;;;;;;4974852;28;20466;-60
2022/12/08 06:15:38;;;;;;;0.77;0.68;;;5.90;84.40;;;;;;4974342;28;20030;-58
2022/12/08 06:18:04;;;;;;;0.40;0.40;;;5.80;84.30;;;;;;4973449;28;20493;-59
2022/12/08 06:20:30;;;;;;;1.00;0.60;;;5.80;84.30;;;;;;4972411;28;20081;-59
2022/12/08 06:22:56;;;;;;;0.30;0.30;;;5.80;84.40;;;;;;4974702;28;20531;-59
2022/12/08 06:25:23;;;;;;;1.48;0.70;;;5.80;84.30;;;;;;4972006;28;20030;-61
2022/12/08 06:27:48;;;;;;;0.52;0.52;;;5.80;84.10;;;;;;4974366;28;20106;-59
2022/12/08 06:30:15;;;;;;;0.35;0.35;;;5.70;84.20;;;;;;4974105;28;20165;-61
2022/12/08 06:32:40;;;;;;;0.40;0.40;;;5.70;84.20;;;;;;4972787;28;20084;-59
2022/12/08 06:35:06;;;;;;;0.50;0.50;;;5.70;84.20;;;;;;4972914;28;20117;-61
2022/12/08 06:37:32;;;;;;;0.32;0.32;;;5.70;84.20;;;;;;4957077;28;20043;-59
2022/12/08 06:39:58;;;;;;;0.20;0.20;;;5.70;84.20;;;;;;4972225;28;20489;-61
2022/12/08 06:45:09;;;;;;;0.40;0.40;;;5.80;84.10;;;;;;4973502;28;20050;-59
2022/12/08 06:47:35;;;;;;;0.57;0.43;;;5.80;84.00;;;;;;4974025;28;20034;-59
2022/12/08 06:50:00;;;;;;;0.90;0.30;;;5.70;84.00;;;;;;4972405;28;20035;-61
2022/12/08 06:52:26;;;;;;;0.63;0.30;;;5.70;84.00;;;;;;4972045;28;20605;-58
2022/12/08 06:54:52;;;;;;;0.40;0.40;;;5.60;84.10;;;;;;4972262;28;20074;-59
2022/12/08 06:57:17;;;;;;;0.38;0.38;;;5.60;84.10;;;;;;4972859;28;20022;-61
2022/12/08 06:59:44;;;;;;;0.30;0.30;;;5.60;84.10;;;;;;4984579;28;20605;-59
2022/12/08 07:02:10;;;;;;;0.20;0.20;;;5.60;84.10;;;;;;4972126;28;20027;-62
2022/12/08 07:04:36;;;;;;;0.50;0.30;;;5.60;84.10;;;;;;4971572;28;20038;-59
2022/12/08 07:07:02;;;;;;;0.43;0.38;;;5.60;84.10;;;;;;4973454;28;20039;-59
2022/12/08 07:09:28;;;;;;;1.13;0.40;;;5.60;84.20;;;;;;4970521;28;20058;-59
2022/12/08 07:11:53;;;;;;;0.50;0.50;;;5.60;84.00;;;;;;4970617;28;20023;-59
2022/12/08 07:14:23;;;;;;;0.73;0.40;;;5.70;83.90;;;;;;4972620;28;20470;-62
2022/12/08 07:16:49;;;;;;;0.30;0.22;;;5.70;83.80;;;;;;4969316;28;20035;-63
2022/12/08 07:19:15;;;;;;;0.28;0.28;;;5.60;83.80;;;;;;4971405;28;20078;-63
2022/12/08 07:21:41;;;;;;;0.50;0.40;;;5.70;83.90;;;;;;4972085;28;20034;-61
2022/12/08 07:24:07;;;;;;;0.50;0.47;;;5.70;83.80;;;;;;4973280;28;20690;-62
2022/12/08 07:26:33;;;;;;;1.50;0.80;;;5.70;83.70;;;;;;4973557;28;20019;-64
2022/12/08 07:28:59;;;;;;;0.60;0.52;;;5.70;83.60;;;;;;4972762;28;20453;-62
2022/12/08 07:31:25;;;;;;;0.43;0.40;;;5.70;83.60;;;;;;4973161;28;20407;-66
2022/12/08 07:33:51;;;;;;;1.63;0.77;;;5.70;83.70;;;;;;4970698;28;20027;-62
2022/12/08 07:36:17;;;;;;;0.40;0.38;;;5.70;83.70;;;;;;4972371;28;20042;-62
2022/12/08 07:38:43;;;;;;;0.45;0.35;;;5.60;83.70;;;;;;4961322;28;20045;-61
2022/12/08 07:41:17;;;;;;;0.90;0.57;;;5.70;83.80;;;;;;4972040;28;20023;-62
2022/12/08 07:43:43;;;;;;;0.68;0.50;;;5.70;83.70;;;;;;4971883;28;20085;-64
2022/12/08 07:46:18;;;;;;;0.32;0.32;;;5.70;83.60;;;;;;4971783;28;20039;-62
2022/12/08 07:48:44;;;;;;;1.05;0.85;;;5.70;83.50;;;;;;4971001;28;20482;-63
2022/12/08 07:51:12;;;;;;;0.55;0.45;;;5.70;83.60;;;;;;4971509;28;20051;-62
2022/12/08 07:53:39;;;;;;;3.10;0.47;;;5.70;83.60;;;;;;4972345;28;20031;-62
2022/12/08 07:56:06;;;;;;;0.63;0.63;;;5.70;83.60;;;;;;4971881;28;20078;-63
2022/12/08 07:58:32;;;;;;;0.98;0.68;;;5.70;83.60;;;;;;4971081;28;20027;-63
2022/12/08 08:00:58;;;;;;;1.30;0.68;;;5.70;83.50;;;;;;4971201;28;20066;-63
2022/12/08 08:03:23;;;;;;;0.35;0.35;;;5.80;83.50;;;;;;4972461;28;20129;-62
2022/12/08 08:05:49;;;;;;;0.85;0.68;;;5.80;83.40;;;;;;4971058;28;20398;-58
2022/12/08 08:08:15;;;;;;;0.30;0.30;;;5.80;83.40;;;;;;4971865;28;20478;-60
2022/12/08 08:10:41;;;;;;;0.98;0.80;;;5.80;83.40;;;;;;4974211;28;20466;-65
2022/12/08 08:13:08;;;;;;;0.20;0.20;;;5.80;83.30;;;;;;4971883;28;20069;-64
2022/12/08 08:15:34;;;;;;;3.03;0.40;;;5.80;83.30;;;;;;4972289;28;20042;-59
2022/12/08 08:18:00;;;;;;;0.68;0.43;;;5.80;83.20;;;;;;4970123;28;20398;-59
2022/12/08 08:20:25;;;;;;;0.32;0.32;;;5.80;83.10;;;;;;4964284;28;20110;-59
2022/12/08 08:22:51;;;;;;;1.45;0.60;;;5.80;83.20;;;;;;4971196;28;20129;-58
2022/12/08 08:25:18;;;;;;;0.68;0.50;;;5.80;83.20;;;;;;4971744;28;20541;-61
2022/12/08 08:27:45;;;;;;;0.45;0.45;;;5.80;83.30;;;;;;4970033;28;20390;-60
2022/12/08 08:30:12;;;;;;;0.52;0.52;;;5.80;83.20;;;;;;4971436;28;20027;-60
2022/12/08 08:32:38;;;;;;;0.77;0.60;;;5.80;83.20;;;;;;4969362;28;20119;-59
2022/12/08 08:35:04;;;;;;;0.98;0.60;;;5.90;83.20;;;;;;4969649;28;20031;-60
2022/12/08 08:37:30;;;;;;;0.28;0.28;;;5.90;83.10;;;;;;4969535;28;20376;-60
2022/12/08 08:39:56;;;;;;;0.52;0.40;;;5.90;83.00;;;;;;4971469;28;20449;-56
2022/12/08 08:42:22;;;;;;;0.32;0.32;;;5.90;83.00;;;;;;4970709;28;20253;-59
2022/12/08 08:44:47;;;;;;;0.47;0.45;;;5.90;82.90;;;;;;4967520;28;20042;-58
2022/12/08 08:47:13;;;;;;;0.32;0.32;;;6.00;82.90;;;;;;4966998;28;20034;-60
2022/12/08 08:49:39;;;;;;;0.40;0.40;;;6.00;82.90;;;;;;4967449;28;20134;-60
2022/12/08 08:52:05;;;;;;;0.60;0.43;;;6.00;82.80;;;;;;4970186;28;20145;-60
2022/12/08 08:54:31;;;;;;;0.30;0.30;;;6.00;82.80;;;;;;4969231;28;20444;-61
2022/12/08 08:56:58;;;;;;;0.60;0.60;;;6.00;82.80;;;;;;4970703;28;20054;-61
2022/12/08 08:59:25;;;;;;;0.80;0.55;;;6.00;82.70;;;;;;4969214;28;20031;-60
2022/12/08 09:01:51;;;;;;;0.93;0.70;;;6.10;82.70;;;;;;4967743;28;20027;-60
2022/12/08 09:04:16;;;;;;;1.23;0.70;;;6.10;82.70;;;;;;4967549;28;20049;-59
2022/12/08 09:06:44;;;;;;;1.55;0.80;;;6.00;82.70;;;;;;4981451;28;20065;-60
2022/12/08 09:09:10;;;;;;;2.97;0.70;;;6.00;82.80;;;;;;4963922;28;20031;-58
2022/12/08 09:11:36;;;;;;;2.13;0.82;;;6.00;82.80;;;;;;4962500;28;20383;-61
2022/12/08 09:14:01;;;;;;;0.80;0.43;;;6.00;82.80;;;;;;4969610;28;20495;-59
2022/12/08 09:16:27;;;;;;;0.52;0.52;;;6.10;82.80;;;;;;4967541;28;20064;-58
2022/12/08 09:18:53;;;;;;;1.60;0.80;;;6.10;82.80;;;;;;4967986;28;20473;-60
2022/12/08 09:21:22;;;;;;;1.02;0.77;;;6.10;82.70;;;;;;4968370;28;20023;-60
2022/12/08 09:23:53;;;;;;;0.85;0.70;;;6.10;82.60;;;;;;4967455;28;20312;-57
2022/12/08 09:26:21;;;;;;;0.45;0.45;;;6.10;82.70;;;;;;4968094;28;20035;-60
2022/12/08 09:28:48;;;;;;;0.47;0.47;;;6.10;82.80;;;;;;4967131;28;20034;-60
2022/12/08 09:31:16;;;;;;;0.90;0.50;;;6.10;82.70;;;;;;4968547;28;20077;-58
2022/12/08 09:33:42;;;;;;;0.30;0.30;;;6.00;82.70;;;;;;4969041;28;20030;-61
2022/12/08 09:36:09;;;;;;;0.45;0.45;;;6.00;82.70;;;;;;4968203;28;20027;-60
2022/12/08 09:38:34;;;;;;;0.40;0.40;;;6.00;82.70;;;;;;4970269;28;20069;-60
2022/12/08 09:41:03;;;;;;;0.65;0.65;;;6.00;82.70;;;;;;4967582;28;20062;-60
2022/12/08 09:43:40;;;;;;;0.20;0.20;;;6.00;82.80;;;;;;4969738;28;20061;-60
2022/12/08 09:46:09;;;;;;;0.50;0.50;;;6.00;82.70;;;;;;4967126;28;20035;-58
2022/12/08 09:48:38;;;;;;;0.63;0.45;;;6.00;82.80;;;;;;4965994;28;20034;-61
2022/12/08 09:51:05;;;;;;;0.77;0.57;;;6.00;82.80;;;;;;4965348;28;20459;-60
2022/12/08 09:53:57;;;;;;;0.63;0.40;;;5.90;82.80;;;;;;4969840;28;20023;-59
2022/12/08 09:56:28;;;;;;;0.85;0.75;;;6.00;82.80;;;;;;4969861;28;20359;-61
2022/12/08 09:59:03;;;;;;;1.40;1.00;;;5.90;82.90;;;;;;4965023;28;20067;-59
2022/12/08 10:01:31;;;;;;;1.45;1.23;;;5.90;82.80;;;;;;4968566;28;20154;-58
2022/12/08 10:03:57;;;;;;;1.20;1.10;;;5.80;82.80;;;;;;4968893;28;20046;-59
2022/12/08 10:06:38;;;;;;;1.17;0.80;;;5.80;83.00;;;;;;4968997;28;20035;-60
2022/12/08 10:09:15;;;;;;;1.70;1.10;;;5.80;83.20;;;;;;4968696;28;20033;-60
2022/12/08 10:11:50;;;;;;;1.02;0.70;;;5.70;83.10;;;;;;4961232;28;20019;-60
2022/12/08 10:14:41;;;;;;;0.82;0.73;;;5.70;83.40;;;;;;4984538;28;20386;-58
2022/12/08 10:17:25;;;;;;;1.83;1.00;;;5.70;83.30;;;;;;4968283;28;20474;-60
2022/12/08 10:20:00;;;;;;;1.13;0.85;;;5.70;83.40;;;;;;4969128;28;20019;-60
2022/12/08 10:22:32;;;;;;;1.42;0.95;;;5.70;83.30;;;;;;4969543;28;20034;-61
2022/12/08 10:24:59;;;;;;;;;;;5.80;83.40;;;;;;4969683;28;20442;-60
2022/12/08 10:27:25;;;;;;;1.52;1.00;;;5.70;83.20;;;;;;4966468;28;20427;-60
2022/12/08 10:29:51;;;;;;;1.55;0.90;;;5.70;83.40;;;;;;4972592;28;20114;-59
2022/12/08 10:32:23;;;;;;;1.30;0.80;;;5.80;83.30;;;;;;4967909;28;20113;-59
2022/12/08 10:35:10;;;;;;;1.10;1.00;;;5.80;83.10;;;;;;4964481;28;20023;-59
2022/12/08 10:37:36;;;;;;;0.90;0.88;;;5.80;83.00;;;;;;4970131;28;20192;-59
2022/12/08 10:40:07;;;;;;;1.85;1.30;;;5.80;83.30;;;;;;4970788;28;20597;-61
2022/12/08 10:42:47;;;;;;;2.55;1.00;;;5.70;83.70;;;;;;4971106;28;20031;-60
2022/12/08 10:45:24;;;;;;;1.10;0.90;;;5.80;83.30;;;;;;4970554;28;20050;-59
2022/12/08 10:48:03;;;;;;;0.75;0.75;;;5.80;83.30;;;;;;4970057;28;20113;-59
2022/12/08 10:50:42;;;;;;;0.60;0.60;;;5.80;83.20;;;;;;4969683;28;20015;-60
2022/12/08 10:53:07;;;;;;;1.02;0.73;;;5.90;83.30;;;;;;4972510;28;20447;-59
2022/12/08 10:56:02;;;;;;;0.88;0.70;;;5.90;83.20;;;;;;4974005;28;20055;-60
2022/12/08 10:58:27;;;;;;;0.65;0.65;;;6.00;82.80;;;;;;4964587;28;20146;-59
2022/12/08 11:00:57;;;;;;;0.93;0.73;;;6.00;82.80;;;;;;4973583;28;20551;-59
2022/12/08 11:03:30;;;;;;;1.08;0.98;;;6.00;82.80;;;;;;4974100;28;20117;-60
2022/12/08 11:06:00;;;;;;;0.60;0.60;;;6.00;82.80;;;;;;4969284;28;20050;-60
2022/12/08 11:08:27;;;;;;;0.60;0.60;;;6.10;82.90;;;;;;4965441;28;20129;-60
2022/12/08 11:10:54;;;;;;;0.90;0.70;;;6.10;82.80;;;;;;4970158;28;20437;-60
2022/12/08 11:13:26;;;;;;;1.20;0.52;;;6.10;82.70;;;;;;4970837;28;20018;-60
2022/12/08 11:15:55;;;;;;;;;;;6.10;82.60;;;;;;4971352;28;20035;-61
2022/12/08 11:18:23;;;;;;;0.85;0.73;;;6.10;82.50;;;;;;4972949;28;19906;-60
2022/12/08 11:20:57;;;;;;;0.93;0.73;;;6.00;82.60;;;;;;4966710;28;20042;-59
2022/12/08 11:23:25;;;;;;;0.50;0.50;;;6.00;82.70;;;;;;4966894;28;20085;-58
2022/12/08 11:25:54;;;;;;;0.32;0.32;;;6.00;82.80;;;;;;4972106;28;20058;-58
2022/12/08 11:28:23;;;;;;;0.80;0.80;;;6.00;82.80;;;;;;4970202;28;20039;-58
2022/12/08 11:30:56;;;;;;;0.95;0.60;;;6.00;82.90;;;;;;4971247;28;20066;-58
2022/12/08 11:33:26;;;;;;;0.60;0.60;;;6.00;82.80;;;;;;4971459;28;20025;-59
2022/12/08 11:36:04;;;;;;;2.15;0.85;;;6.10;82.80;;;;;;4969995;28;20038;-58
2022/12/08 11:38:32;;;;;;;0.75;0.75;;;6.20;82.70;;;;;;4985352;28;20038;-57
2022/12/08 11:41:07;;;;;;;0.80;0.80;;;6.10;82.40;;;;;;4970790;28;20049;-66
2022/12/08 11:43:33;;;;;;;0.57;0.57;;;6.20;82.50;;;;;;4972072;28;20350;-58
2022/12/08 11:46:02;;;;;;;1.38;1.00;;;6.20;82.50;;;;;;4970600;28;20045;-59
2022/12/08 11:49:03;;;;;;;1.23;0.57;;;6.20;82.30;;;;;;4970901;28;20099;-59
2022/12/08 11:51:54;;;;;;;0.80;0.80;;;6.10;82.40;;;;;;4969904;28;20508;-58
2022/12/08 11:54:31;;;;;;;1.13;0.90;;;6.10;82.60;;;;;;4970643;28;20031;-59
2022/12/08 11:56:59;;;;;;;1.50;1.02;;;6.10;82.70;;;;;;4971339;28;20493;-56
2022/12/08 11:59:32;;;;;;;1.08;0.82;;;6.10;82.60;;;;;;4969297;28;20474;-54
2022/12/08 12:01:58;;;;;;;;;;;6.10;82.50;;;;;;4972521;28;20094;-57
2022/12/08 12:04:34;;;;;;;1.55;0.90;;;6.00;82.60;;;;;;4966036;28;19958;-59
2022/12/08 12:07:31;;;;;;;1.10;0.77;;;6.00;82.80;;;;;;4965680;28;20454;-58
2022/12/08 12:10:06;;;;;;;0.95;0.60;;;6.00;82.80;;;;;;4970491;28;20042;-59
2022/12/08 12:12:56;;;;;;;0.63;0.63;;;6.10;82.70;;;;;;4972440;28;20102;-58
2022/12/08 12:15:31;;;;;;;0.38;0.38;;;6.10;82.60;;;;;;4971070;28;20074;-56
2022/12/08 12:18:06;;;;;;;2.67;0.90;;;6.10;82.60;;;;;;4967022;28;20038;-59
2022/12/08 12:20:51;;;;;;;1.00;0.90;;;6.10;82.50;;;;;;4959693;28;20031;-58
2022/12/08 12:23:36;;;;;;;0.70;0.68;;;6.20;82.30;;;;;;4960540;28;20085;-58
2022/12/08 12:26:08;;;;;;;0.75;0.75;;;6.10;82.20;;;;;;4970729;28;20058;-58
2022/12/08 12:28:45;;;;;;;;;;;6.00;82.20;;;;;;4970248;28;20765;-55
2022/12/08 12:31:15;;;;;;;0.55;0.45;;;5.90;82.20;;;;;;4970780;28;19914;-56
2022/12/08 12:33:44;;;;;;;1.05;0.60;;;5.90;82.50;;;;;;4968801;28;20466;-57
2022/12/08 12:36:12;;;;;;;0.73;0.60;;;5.90;82.40;;;;;;4968249;28;20031;-56
2022/12/08 12:39:08;;;;;;;0.63;0.45;;;5.90;82.40;;;;;;4967932;28;20463;-59
2022/12/08 12:41:45;;;;;;;0.30;0.30;;;5.90;82.30;;;;;;4970820;28;20501;-59
2022/12/08 12:44:10;;;;;;;0.50;0.50;;;5.90;82.80;;;;;;4968518;28;20038;-58
2022/12/08 12:46:47;;;;;;;0.77;0.68;;;5.90;82.30;;;;;;4969223;28;20081;-58
2022/12/08 12:49:37;;;;;;;0.47;0.47;;;5.90;82.20;;;;;;4967941;28;21241;-58
2022/12/08 12:52:09;;;;;;;0.40;0.40;;;5.90;82.10;;;;;;4971198;28;20043;-58
2022/12/08 12:54:35;;;;;;;0.63;0.63;;;6.00;82.10;;;;;;4969177;28;20026;-60
2022/12/08 12:57:09;;;;;;;0.75;0.55;;;6.00;82.00;;;;;;4966605;28;20644;-60
2022/12/08 12:59:45;;;;;;;3.42;0.40;;;6.00;82.00;;;;;;4959019;28;20042;-60
2022/12/08 13:02:17;;;;;;;0.63;0.60;;;6.00;81.90;;;;;;4964510;28;20058;-58
2022/12/08 13:04:59;;;;;;;0.30;0.30;;;6.00;81.90;;;;;;4969093;28;20043;-57
2022/12/08 13:07:31;;;;;;;0.68;0.30;;;6.00;82.00;;;;;;4969450;28;20046;-57
2022/12/08 13:10:02;;;;;;;;;;;6.10;81.80;;;;;;4970070;28;20069;-63
2022/12/08 13:12:28;;;;;;;0.60;0.50;;;6.00;81.60;;;;;;4969411;28;19940;-63
2022/12/08 13:15:01;;;;;;;0.50;0.50;;;6.00;81.70;;;;;;4969289;28;20031;-62
2022/12/08 13:17:30;;;;;;;0.88;0.55;;;6.00;81.60;;;;;;4970032;28;20033;-63
2022/12/08 13:20:00;;;;;;;0.68;0.40;;;6.00;81.60;;;;;;4968887;28;20126;-63